createdAt,value
2023-01-18T00:01:10.578Z,95115.53
2023-01-18T00:03:39.516Z,95115.00
2023-01-18T00:06:10.053Z,95112.53
2023-01-18T00:08:39.395Z,95108.22
2023-01-18T00:11:16.020Z,95115.91
2023-01-18T00:13:44.157Z,95110.16
2023-01-18T00:16:13.793Z,95109.25
2023-01-18T00:18:41.381Z,95113.16
2023-01-18T00:21:11.459Z,95112.25
2023-01-18T00:23:39.307Z,95119.19
2023-01-18T00:26:11.898Z,95111.13
2023-01-18T00:28:40.508Z,95115.00
2023-01-18T00:31:12.794Z,95112.25
2023-01-18T00:33:43.892Z,95111.47
2023-01-18T00:36:12.234Z,95111.47
2023-01-18T00:38:39.907Z,95107.03
2023-01-18T00:41:07.418Z,95120.88
2023-01-18T00:43:40.875Z,95107.03
2023-01-18T00:46:09.924Z,95111.13
2023-01-18T00:48:41.227Z,95111.31
2023-01-18T00:51:11.723Z,95106.69
2023-01-18T00:53:39.731Z,95103.72
2023-01-18T00:56:12.439Z,95098.28
2023-01-18T00:58:39.986Z,95099.06
2023-01-18T01:01:08.573Z,95096.25
2023-01-18T01:03:56.020Z,95097.59
2023-01-18T01:06:45.453Z,95098.16
2023-01-18T01:09:25.415Z,95099.75
2023-01-18T01:12:13.201Z,95096.94
2023-01-18T01:15:02.135Z,95097.97
2023-01-18T01:17:49.931Z,95100.00
2023-01-18T01:20:36.250Z,95106.59
2023-01-18T01:23:37.433Z,95104.78
2023-01-18T01:26:11.134Z,95094.75
2023-01-18T01:28:40.033Z,95098.50
2023-01-18T01:31:09.560Z,95096.22
2023-01-18T01:33:37.859Z,95095.78
2023-01-18T01:36:08.964Z,95092.72
2023-01-18T01:38:36.539Z,95087.84
2023-01-18T01:41:16.360Z,95090.22
2023-01-18T01:43:53.218Z,95091.47
2023-01-18T01:46:39.022Z,95096.16
2023-01-18T01:49:09.301Z,95088.50
2023-01-18T01:51:41.593Z,95087.94
2023-01-18T01:54:23.390Z,95087.25
2023-01-18T01:56:55.156Z,95082.72
2023-01-18T01:59:23.831Z,95079.97
2023-01-18T02:01:51.399Z,95078.81
2023-01-18T02:04:19.397Z,95084.06
2023-01-18T02:06:46.954Z,95084.44
2023-01-18T02:09:16.313Z,95082.59
2023-01-18T02:11:44.117Z,95081.81
2023-01-18T02:14:15.851Z,95087.03
2023-01-18T02:17:34.479Z,95089.88
2023-01-18T02:20:34.427Z,95091.34
2023-01-18T02:23:21.562Z,95091.22
2023-01-18T02:26:13.268Z,95094.19
2023-01-18T02:28:45.841Z,95089.63
2023-01-18T02:31:26.067Z,95095.06
2023-01-18T02:34:18.557Z,95093.69
2023-01-18T02:37:08.982Z,95100.53
2023-01-18T02:40:02.601Z,95099.66
2023-01-18T02:42:50.381Z,95100.44
2023-01-18T02:46:06.533Z,95102.13
2023-01-18T02:48:43.229Z,95102.72
2023-01-18T02:51:11.337Z,95105.88
2023-01-18T02:53:42.462Z,95110.09
2023-01-18T02:56:24.892Z,95110.97
2023-01-18T02:58:58.912Z,95112.06
2023-01-18T03:01:38.394Z,95120.59
2023-01-18T03:04:22.244Z,95118.91
2023-01-18T03:06:58.811Z,95114.69
2023-01-18T03:09:27.446Z,95109.34
2023-01-18T03:12:46.258Z,95108.63
2023-01-18T03:15:43.013Z,95110.44
2023-01-18T03:18:24.373Z,95108.97
2023-01-18T03:20:55.939Z,95109.66
2023-01-18T03:23:38.146Z,95108.28
2023-01-18T03:26:11.326Z,95105.06
2023-01-18T03:29:03.869Z,95111.34
2023-01-18T03:31:57.735Z,95117.59
2023-01-18T03:34:25.175Z,95108.81
2023-01-18T03:36:55.773Z,95107.44
2023-01-18T03:39:34.400Z,95102.22
2023-01-18T03:42:09.060Z,95106.84
2023-01-18T03:44:43.847Z,95102.44
2023-01-18T03:47:11.299Z,95109.84
2023-01-18T03:49:38.971Z,95100.19
2023-01-18T03:52:24.645Z,95095.16
2023-01-18T03:55:04.243Z,95083.91
2023-01-18T03:57:43.196Z,95083.47
2023-01-18T04:00:11.777Z,95090.72
2023-01-18T04:02:45.017Z,95089.50
2023-01-18T04:05:13.129Z,95088.84
2023-01-18T04:07:40.649Z,95090.88
2023-01-18T04:10:08.864Z,95092.19
2023-01-18T04:12:36.677Z,95086.97
2023-01-18T04:15:04.766Z,95088.66
2023-01-18T04:17:32.275Z,95086.38
2023-01-18T04:19:59.768Z,95087.59
2023-01-18T04:22:27.195Z,95099.00
2023-01-18T04:24:54.727Z,95101.13
2023-01-18T04:27:24.290Z,95097.50
2023-01-18T04:29:52.505Z,95108.66
2023-01-18T04:32:19.921Z,95101.41
2023-01-18T04:34:47.488Z,95104.28
2023-01-18T04:37:14.933Z,95107.41
2023-01-18T04:39:42.397Z,95101.75
2023-01-18T04:42:09.829Z,95099.88
2023-01-18T04:44:37.507Z,95106.03
2023-01-18T04:47:05.016Z,95106.19
2023-01-18T04:49:32.534Z,95123.66
2023-01-18T04:51:59.965Z,95118.44
2023-01-18T04:54:28.311Z,95125.25
2023-01-18T04:56:55.766Z,95125.63
2023-01-18T04:59:23.343Z,95118.38
2023-01-18T05:01:50.767Z,95121.13
2023-01-18T05:04:18.398Z,95117.63
2023-01-18T05:06:48.663Z,95118.78
2023-01-18T05:09:16.209Z,95122.06
2023-01-18T05:11:43.710Z,95128.81
2023-01-18T05:14:11.269Z,95127.22
2023-01-18T05:16:38.804Z,95132.22
2023-01-18T05:19:06.306Z,95130.63
2023-01-18T05:21:33.738Z,95130.41
2023-01-18T05:24:01.442Z,95130.19
2023-01-18T05:26:28.842Z,95133.59
2023-01-18T05:28:57.844Z,95135.19
2023-01-18T05:31:25.913Z,95137.81
2023-01-18T05:33:53.660Z,95144.50
2023-01-18T05:36:21.120Z,95153.34
2023-01-18T05:38:48.797Z,95150.94
2023-01-18T05:41:16.377Z,95152.34
2023-01-18T05:43:44.033Z,95152.84
2023-01-18T05:46:11.567Z,95156.41
2023-01-18T05:48:39.137Z,95153.19
2023-01-18T05:51:09.183Z,95149.63
2023-01-18T05:53:37.476Z,95158.06
2023-01-18T05:56:06.800Z,95160.31
2023-01-18T05:58:34.760Z,95160.16
2023-01-18T06:01:02.311Z,95158.22
2023-01-18T06:03:29.898Z,95160.25
2023-01-18T06:05:59.060Z,95153.63
2023-01-18T06:08:26.570Z,95149.81
2023-01-18T06:10:58.835Z,95149.56
2023-01-18T06:13:28.576Z,95147.19
2023-01-18T06:15:58.147Z,95152.84
2023-01-18T06:18:27.878Z,95158.06
2023-01-18T06:21:01.515Z,95155.47
2023-01-18T06:23:30.565Z,95159.47
2023-01-18T06:25:58.650Z,95155.63
2023-01-18T06:28:26.852Z,95160.25
2023-01-18T06:30:56.520Z,95160.03
2023-01-18T06:33:24.807Z,95163.44
2023-01-18T06:35:52.749Z,95161.84
2023-01-18T06:38:20.859Z,95168.69
2023-01-18T06:40:48.291Z,95169.25
2023-01-18T06:43:16.139Z,95171.66
2023-01-18T06:45:43.816Z,95178.81
2023-01-18T06:48:11.332Z,95179.63
2023-01-18T06:50:38.829Z,95187.00
2023-01-18T06:53:06.399Z,95186.56
2023-01-18T06:55:34.777Z,95195.94
2023-01-18T06:58:02.810Z,95193.50
2023-01-18T07:00:30.223Z,95199.06
2023-01-18T07:02:58.866Z,95196.59
2023-01-18T07:05:26.544Z,95197.41
2023-01-18T07:07:54.144Z,95193.97
2023-01-18T07:10:21.608Z,95194.78
2023-01-18T07:12:51.064Z,95193.75
2023-01-18T07:15:22.858Z,95205.44
2023-01-18T07:17:51.062Z,95207.88
2023-01-18T07:20:20.047Z,95205.38
2023-01-18T07:22:53.914Z,95200.28
2023-01-18T07:25:21.521Z,95213.50
2023-01-18T07:27:49.345Z,95218.50
2023-01-18T07:30:17.580Z,95212.38
2023-01-18T07:32:51.325Z,95216.97
2023-01-18T07:35:22.318Z,95216.09
2023-01-18T07:37:53.448Z,95215.56
2023-01-18T07:40:22.033Z,95215.75
2023-01-18T07:42:56.384Z,95221.94
2023-01-18T07:45:24.328Z,95218.06
2023-01-18T07:47:53.528Z,95225.28
2023-01-18T07:50:24.070Z,95222.22
2023-01-18T07:52:51.596Z,95231.22
2023-01-18T07:55:21.239Z,95233.47
2023-01-18T07:57:48.792Z,95245.09
2023-01-18T08:00:17.451Z,95244.44
2023-01-18T08:02:45.135Z,95241.66
2023-01-18T08:05:12.689Z,95240.53
2023-01-18T08:07:40.396Z,95248.16
2023-01-18T08:10:08.528Z,95250.66
2023-01-18T08:12:36.047Z,95249.34
2023-01-18T08:15:04.687Z,95247.53
2023-01-18T08:17:32.128Z,95249.03
2023-01-18T08:19:59.543Z,95247.03
2023-01-18T08:22:27.227Z,95258.19
2023-01-18T08:24:54.789Z,95257.16
2023-01-18T08:27:22.699Z,95260.13
2023-01-18T08:29:50.225Z,95259.91
2023-01-18T08:32:17.810Z,95262.63
2023-01-18T08:34:45.256Z,95268.88
2023-01-18T08:37:12.803Z,95270.88
2023-01-18T08:39:40.290Z,95277.13
2023-01-18T08:42:07.834Z,95273.41
2023-01-18T08:44:35.280Z,95277.47
2023-01-18T08:47:03.416Z,95276.47
2023-01-18T08:49:32.825Z,95283.88
2023-01-18T08:52:00.395Z,95274.66
2023-01-18T08:54:27.889Z,95278.28
2023-01-18T08:56:55.421Z,95286.88
2023-01-18T08:59:23.889Z,95289.13
2023-01-18T09:01:51.485Z,95287.75
2023-01-18T09:04:19.005Z,95295.75
2023-01-18T09:06:47.336Z,95298.03
2023-01-18T09:09:14.969Z,95295.41
2023-01-18T09:11:42.454Z,95294.94
2023-01-18T09:14:09.973Z,95308.84
2023-01-18T09:16:37.514Z,95304.41
2023-01-18T09:19:06.568Z,95312.38
2023-01-18T09:21:34.514Z,95321.50
2023-01-18T09:24:02.001Z,95318.22
2023-01-18T09:26:30.690Z,95312.28
2023-01-18T09:28:58.273Z,95323.00
2023-01-18T09:31:27.258Z,95322.31
2023-01-18T09:34:01.023Z,95323.78
2023-01-18T09:36:41.295Z,95325.06
2023-01-18T09:39:08.924Z,95322.31
2023-01-18T09:41:39.317Z,95331.19
2023-01-18T09:44:30.182Z,95323.41
2023-01-18T09:47:19.887Z,95337.13
2023-01-18T09:49:58.875Z,95324.22
2023-01-18T09:53:08.298Z,95325.75
2023-01-18T09:56:02.652Z,95322.34
2023-01-18T09:58:52.408Z,95328.06
2023-01-18T10:01:27.100Z,95329.00
2023-01-18T10:04:00.966Z,95328.59
2023-01-18T10:06:49.362Z,95330.03
2023-01-18T10:09:27.604Z,95328.34
2023-01-18T10:11:59.817Z,95327.78
2023-01-18T10:14:36.198Z,95331.28
2023-01-18T10:17:12.282Z,95334.03
2023-01-18T10:19:41.197Z,95342.38
2023-01-18T10:22:13.569Z,95347.03
2023-01-18T10:24:50.074Z,95345.91
2023-01-18T10:27:36.802Z,95348.44
2023-01-18T10:30:22.823Z,95348.66
2023-01-18T10:32:58.210Z,95345.00
2023-01-18T10:35:33.393Z,95343.16
2023-01-18T10:38:08.838Z,95342.16
2023-01-18T10:40:39.422Z,95350.25
2023-01-18T10:43:20.613Z,95357.31
2023-01-18T10:50:00.621Z,95363.03
2023-01-18T10:52:30.790Z,95370.31
2023-01-18T10:55:07.842Z,95369.16
2023-01-18T10:57:42.437Z,95375.75
2023-01-18T11:00:23.781Z,95367.38
2023-01-18T11:02:53.401Z,95370.91
2023-01-18T11:05:40.520Z,95374.78
2023-01-18T11:08:32.965Z,95366.88
2023-01-18T11:11:06.411Z,95374.31
2023-01-18T11:13:40.450Z,95374.38
2023-01-18T11:16:14.258Z,95381.66
2023-01-18T11:19:17.799Z,95386.91
2023-01-18T11:21:51.557Z,95385.31
2023-01-18T11:24:30.154Z,95386.53
2023-01-18T11:26:59.477Z,95388.50
2023-01-18T11:29:35.956Z,95389.41
2023-01-18T11:32:07.146Z,95400.38
2023-01-18T11:34:41.348Z,95395.03
2023-01-18T11:37:27.713Z,95406.66
2023-01-18T11:39:55.706Z,95404.72
2023-01-18T11:42:31.766Z,95406.66
2023-01-18T11:45:17.598Z,95404.41
2023-01-18T11:47:53.762Z,95411.97
2023-01-18T11:50:28.436Z,95413.22
2023-01-18T11:53:09.961Z,95418.59
2023-01-18T11:55:48.467Z,95427.72
2023-01-18T11:58:28.538Z,95436.06
2023-01-18T12:01:25.013Z,95428.16
2023-01-18T12:03:59.100Z,95439.69
2023-01-18T12:06:56.972Z,95430.66
2023-01-18T12:09:44.910Z,95433.97
2023-01-18T12:12:47.289Z,95440.69
2023-01-18T12:15:52.096Z,95438.50
2023-01-18T12:18:22.251Z,95442.19
2023-01-18T12:21:11.905Z,95456.78
2023-01-18T12:24:05.029Z,95472.47
2023-01-18T12:26:59.730Z,95474.38
2023-01-18T12:29:42.610Z,95479.88
2023-01-18T12:32:40.658Z,95482.50
2023-01-18T12:35:23.578Z,95478.84
2023-01-18T12:38:23.437Z,95480.22
2023-01-18T12:40:56.977Z,95479.91
2023-01-18T12:43:37.285Z,95488.69
2023-01-18T12:46:09.313Z,95498.75
2023-01-18T12:48:55.500Z,95492.59
2023-01-18T12:51:26.427Z,95503.09
2023-01-18T12:54:25.645Z,95506.13
2023-01-18T12:56:56.527Z,95515.69
2023-01-18T12:59:57.432Z,95517.97
2023-01-18T13:02:35.304Z,95522.72
2023-01-18T13:05:12.052Z,95525.91
2023-01-18T13:07:44.313Z,95530.44
2023-01-18T13:10:24.060Z,95536.69
2023-01-18T13:12:54.205Z,95539.19
2023-01-18T13:15:40.423Z,95543.88
2023-01-18T13:18:26.063Z,95557.63
2023-01-18T13:21:25.461Z,95559.28
2023-01-18T13:24:11.419Z,95564.53
2023-01-18T13:26:39.099Z,95569.13
2023-01-18T13:29:29.921Z,95567.06
2023-01-18T13:31:58.308Z,95568.69
2023-01-18T13:34:33.851Z,95569.13
2023-01-18T13:37:14.268Z,95566.28
2023-01-18T13:39:47.610Z,95572.31
2023-01-18T13:42:21.454Z,95567.91
2023-01-18T13:44:51.076Z,95573.69
2023-01-18T13:47:39.608Z,95586.16
2023-01-18T13:50:28.700Z,95582.66
2023-01-18T13:53:19.500Z,95587.03
2023-01-18T13:55:52.798Z,95591.31
2023-01-18T13:58:34.280Z,95595.03
2023-01-18T14:01:04.446Z,95598.69
2023-01-18T14:03:36.439Z,95599.13
2023-01-18T14:06:14.702Z,95604.72
2023-01-18T14:08:51.872Z,95608.22
2023-01-18T14:11:42.507Z,95616.31
2023-01-18T14:14:12.808Z,95623.81
2023-01-18T14:17:07.259Z,95630.28
2023-01-18T14:19:47.207Z,95645.34
2023-01-18T14:22:28.399Z,95650.94
2023-01-18T14:24:56.033Z,95658.81
2023-01-18T14:27:27.398Z,95664.28
2023-01-18T14:30:13.773Z,95665.16
2023-01-18T14:32:53.541Z,95673.81
2023-01-18T14:35:25.778Z,95675.28
2023-01-18T14:38:17.780Z,95680.28
2023-01-18T14:40:48.652Z,95683.94
2023-01-18T14:43:32.296Z,95683.34
2023-01-18T14:46:04.931Z,95696.00
2023-01-18T14:48:37.476Z,95692.59
2023-01-18T14:51:07.148Z,95695.22
2023-01-18T14:53:43.192Z,95695.88
2023-01-18T14:56:13.603Z,95705.75
2023-01-18T14:59:14.096Z,95707.41
2023-01-18T15:01:42.791Z,95709.06
2023-01-18T15:04:25.155Z,95712.50
2023-01-18T15:07:10.233Z,95715.53
2023-01-18T15:09:39.866Z,95717.16
2023-01-18T15:12:11.007Z,95727.47
2023-01-18T15:14:45.062Z,95727.97
2023-01-18T15:17:23.964Z,95731.56
2023-01-18T15:19:59.771Z,95741.13
2023-01-18T15:22:34.460Z,95749.97
2023-01-18T15:25:02.246Z,95746.53
2023-01-18T15:27:32.591Z,95755.81
2023-01-18T15:30:01.697Z,95761.66
2023-01-18T15:32:33.349Z,95766.47
2023-01-18T15:35:02.500Z,95771.72
2023-01-18T15:37:37.688Z,95777.59
2023-01-18T15:40:14.157Z,95785.22
2023-01-18T15:42:44.608Z,95786.84
2023-01-18T15:45:25.867Z,95797.09
2023-01-18T15:48:09.040Z,95801.13
2023-01-18T15:50:44.180Z,95799.31
2023-01-18T15:53:26.118Z,95808.59
2023-01-18T15:55:58.636Z,95810.81
2023-01-18T15:58:42.824Z,95817.25
2023-01-18T16:01:13.498Z,95819.09
2023-01-18T16:03:48.216Z,95822.72
2023-01-18T16:06:17.175Z,95825.16
2023-01-18T16:09:01.127Z,95825.53
2023-01-18T16:11:54.317Z,95837.00
2023-01-18T16:14:28.330Z,95839.81
2023-01-18T16:17:22.533Z,95843.25
2023-01-18T16:19:57.827Z,95842.44
2023-01-18T16:22:31.933Z,95843.50
2023-01-18T16:25:16.884Z,95851.34
2023-01-18T16:27:52.838Z,95855.56
2023-01-18T16:30:33.616Z,95867.44
2023-01-18T16:33:14.431Z,95870.66
2023-01-18T16:35:42.285Z,95874.88
2023-01-18T16:38:12.219Z,95882.13
2023-01-18T16:40:42.874Z,95888.19
2023-01-18T16:43:34.727Z,95889.00
2023-01-18T16:46:04.651Z,95890.41
2023-01-18T16:48:34.179Z,95898.50
2023-01-18T16:51:01.810Z,95903.13
2023-01-18T16:53:29.392Z,95903.91
2023-01-18T16:55:56.947Z,95912.19
2023-01-18T16:58:24.475Z,95911.78
2023-01-18T17:00:57.551Z,95917.44
2023-01-18T17:03:25.295Z,95929.94
2023-01-18T17:05:52.744Z,95934.81
2023-01-18T17:08:20.369Z,95940.41
2023-01-18T17:10:50.577Z,95942.03
2023-01-18T17:13:18.067Z,95947.28
2023-01-18T17:15:45.709Z,95947.88
2023-01-18T17:18:20.878Z,95962.00
2023-01-18T17:20:48.673Z,95973.69
2023-01-18T17:23:16.675Z,95969.06
2023-01-18T17:25:44.861Z,95972.69
2023-01-18T17:28:17.133Z,95971.47
2023-01-18T17:30:47.609Z,95979.13
2023-01-18T17:33:18.912Z,95981.16
2023-01-18T17:35:47.612Z,95977.13
2023-01-18T17:38:23.167Z,95980.34
2023-01-18T17:40:51.564Z,95987.97
2023-01-18T17:43:32.182Z,95989.00
2023-01-18T17:46:06.523Z,95995.25
2023-01-18T17:48:34.468Z,95994.22
2023-01-18T17:51:05.819Z,96000.50
2023-01-18T17:53:33.510Z,96007.94
2023-01-18T17:56:00.978Z,96009.72
2023-01-18T17:58:28.527Z,96010.97
2023-01-18T18:00:56.145Z,96018.19
2023-01-18T18:03:23.800Z,96011.94
2023-01-18T18:05:57.144Z,96018.59
2023-01-18T18:08:24.633Z,96019.00
2023-01-18T18:10:52.064Z,96029.47
2023-01-18T18:13:19.547Z,96023.25
2023-01-18T18:15:49.442Z,96031.06
2023-01-18T18:18:24.167Z,96030.28
2023-01-18T18:20:59.586Z,96034.13
2023-01-18T18:23:28.383Z,96041.75
2023-01-18T18:25:57.202Z,96049.63
2023-01-18T18:28:25.557Z,96050.63
2023-01-18T18:30:53.093Z,96058.28
2023-01-18T18:33:22.145Z,96061.69
2023-01-18T18:35:51.228Z,96065.09
2023-01-18T18:38:22.978Z,96071.75
2023-01-18T18:40:51.324Z,96073.78
2023-01-18T18:43:19.265Z,96088.88
2023-01-18T18:45:47.786Z,96092.09
2023-01-18T18:48:15.258Z,96100.56
2023-01-18T18:50:43.017Z,96100.56
2023-01-18T18:53:10.512Z,96116.06
2023-01-18T18:55:37.997Z,96122.91
2023-01-18T18:58:05.935Z,96122.13
2023-01-18T19:00:33.436Z,96126.94
2023-01-18T19:03:03.086Z,96133.00
2023-01-18T19:05:31.877Z,96138.00
2023-01-18T19:08:00.006Z,96139.81
2023-01-18T19:10:30.491Z,96149.50
2023-01-18T19:12:58.643Z,96155.72
2023-01-18T19:15:26.656Z,96155.13
2023-01-18T19:17:54.185Z,96155.91
2023-01-18T19:20:22.067Z,96163.78
2023-01-18T19:22:50.515Z,96172.00
2023-01-18T19:25:19.051Z,96179.44
2023-01-18T19:27:46.685Z,96179.63
2023-01-18T19:30:18.685Z,96188.13
2023-01-18T19:32:48.451Z,96183.06
2023-01-18T19:35:16.574Z,96194.31
2023-01-18T19:37:45.795Z,96202.78
2023-01-18T19:40:16.860Z,96204.59
2023-01-18T19:42:45.096Z,96213.81
2023-01-18T19:45:19.661Z,96227.69
2023-01-18T19:47:55.533Z,96230.31
2023-01-18T19:50:23.477Z,96231.09
2023-01-18T19:52:50.951Z,96241.56
2023-01-18T19:55:18.729Z,96238.94
2023-01-18T19:57:46.540Z,96245.16
2023-01-18T20:00:16.693Z,96256.66
2023-01-18T20:02:47.295Z,96254.03
2023-01-18T20:05:14.867Z,96263.25
2023-01-18T20:07:42.545Z,96263.00
2023-01-18T20:10:10.743Z,96276.28
2023-01-18T20:12:38.499Z,96270.81
2023-01-18T20:15:06.534Z,96274.84
2023-01-18T20:17:34.030Z,96283.06
2023-01-18T20:20:01.616Z,96283.63
2023-01-18T20:22:29.082Z,96285.00
2023-01-18T20:24:56.726Z,96296.09
2023-01-18T20:27:24.162Z,96296.91
2023-01-18T20:29:51.723Z,96295.59
2023-01-18T20:32:19.348Z,96305.13
2023-01-18T20:34:47.574Z,96300.91
2023-01-18T20:37:16.499Z,96311.78
2023-01-18T20:39:44.027Z,96306.34
2023-01-18T20:42:11.546Z,96313.38
2023-01-18T20:44:39.072Z,96315.00
2023-01-18T20:47:06.699Z,96317.44
2023-01-18T20:49:38.655Z,96316.44
2023-01-18T20:52:07.590Z,96320.69
2023-01-18T20:54:36.566Z,96323.72
2023-01-18T20:57:05.755Z,96324.69
2023-01-18T20:59:33.496Z,96334.97
2023-01-18T21:02:01.619Z,96341.66
2023-01-18T21:04:29.357Z,96337.25
2023-01-18T21:06:59.803Z,96344.91
2023-01-18T21:09:27.558Z,96345.72
2023-01-18T21:11:54.976Z,96348.13
2023-01-18T21:14:22.630Z,96340.09
2023-01-18T21:16:50.244Z,96342.91
2023-01-18T21:19:18.101Z,96342.72
2023-01-18T21:21:45.536Z,96347.31
2023-01-18T21:24:13.072Z,96345.34
2023-01-18T21:26:40.560Z,96354.16
2023-01-18T21:29:08.362Z,96351.53
2023-01-18T21:31:35.816Z,96362.47
2023-01-18T21:34:03.478Z,96357.81
2023-01-18T21:36:31.040Z,96358.28
2023-01-18T21:38:58.687Z,96354.44
2023-01-18T21:41:45.044Z,96351.81
2023-01-18T21:44:31.257Z,96360.69
2023-01-18T21:46:59.227Z,96368.94
2023-01-18T21:50:15.947Z,96361.09
2023-01-18T21:52:52.137Z,96365.78
2023-01-18T21:55:20.283Z,96375.22
2023-01-18T21:58:07.667Z,96381.88
2023-01-18T22:00:39.603Z,96386.31
2023-01-18T22:03:07.567Z,96385.69
2023-01-18T22:05:35.075Z,96381.88
2023-01-18T22:08:02.754Z,96383.69
2023-01-18T22:10:30.407Z,96388.94
2023-01-18T22:12:58.044Z,96390.13
2023-01-18T22:15:25.523Z,96387.25
2023-01-18T22:17:52.979Z,96392.44
2023-01-18T22:20:20.550Z,96391.81
2023-01-18T22:22:48.539Z,96394.03
2023-01-18T22:25:16.075Z,96380.22
2023-01-18T22:27:43.594Z,96386.41
2023-01-18T22:30:11.709Z,96394.56
2023-01-18T22:32:39.483Z,96390.91
2023-01-18T22:35:07.061Z,96391.47
2023-01-18T22:37:34.622Z,96390.66
2023-01-18T22:40:02.046Z,96395.59
2023-01-18T22:42:30.236Z,96396.88
2023-01-18T22:44:57.733Z,96408.44
2023-01-18T22:47:25.206Z,96404.41
2023-01-18T22:49:53.986Z,96409.13
2023-01-18T22:52:21.526Z,96416.88
2023-01-18T22:54:49.094Z,96419.44
2023-01-18T22:57:16.585Z,96435.63
2023-01-18T22:59:43.971Z,96443.75
2023-01-18T23:02:11.531Z,96459.41
2023-01-18T23:04:38.945Z,96455.56
2023-01-18T23:07:06.532Z,96468.34
2023-01-18T23:09:33.968Z,96462.94
2023-01-18T23:12:01.550Z,96473.47
2023-01-18T23:14:47.680Z,96479.34
2023-01-18T23:17:42.286Z,96468.69
2023-01-18T23:20:12.218Z,96471.88
2023-01-18T23:22:39.788Z,96481.66
2023-01-18T23:25:07.568Z,96489.06
2023-01-18T23:27:35.088Z,96484.47
2023-01-18T23:30:02.771Z,96485.44
2023-01-18T23:32:33.295Z,96487.78
2023-01-18T23:35:01.044Z,96484.00
2023-01-18T23:37:28.755Z,96486.97
2023-01-18T23:40:15.093Z,96489.13
2023-01-18T23:43:01.207Z,96482.47
2023-01-18T23:45:47.446Z,96497.94
2023-01-18T23:48:36.297Z,96499.63
2023-01-18T23:51:23.121Z,96494.53
2023-01-18T23:54:09.329Z,96503.31
2023-01-18T23:56:36.877Z,96496.84
2023-01-18T23:59:04.316Z,96503.41
